KLOU/LOU METAR and TAF weather

Enter ICAO airport designator
Station Type Date Time Source
KLOU METAR 2022/01/26 06:53 UTC NOAA

KLOU 260653Z AUTO 34006KT 10SM CLR M07/M15 A3039 RMK AO2 SLP299 T10721150


Station Type Date Time Source
KLOU Decoded METAR 2022/01/26 06:53 UTC NOAA

BOWMAN FIELD, KY, United States (KLOU) 38-14N 085-40W 164M
Jan 26, 2022 - 01:53 AM EST / 2022.01.26 0653 UTC
Wind: from the NNW (340 degrees) at 7 MPH (6 KT):0
Visibility: 10 mile(s):0
Sky conditions: clear
Temperature: 19.0 F (-7.2 C)
Windchill: 10 F (-12 C):1
Dew Point: 5.0 F (-15.0 C)
Relative Humidity: 53%
Pressure (altimeter): 30.39 in. Hg (1029 hPa)
ob: KLOU 260653Z AUTO 34006KT 10SM CLR M07/M15 A3039 RMK AO2 SLP299 T10721150
cycle: 7

Station Type Date Time Source
KLOU TAF UTC NOAA

Error!

Example: see airport list